createdAt,value
2018-05-09T00:01:29.865Z,3.70
2018-05-09T00:05:32.511Z,4.10
2018-05-09T00:09:35.143Z,3.30
2018-05-09T00:13:37.748Z,3.47
2018-05-09T00:17:40.381Z,3.57
2018-05-09T00:21:43.784Z,3.53
2018-05-09T00:25:46.456Z,3.67
2018-05-09T00:29:49.093Z,3.60
2018-05-09T00:33:51.700Z,3.30
2018-05-09T00:37:54.345Z,3.60
2018-05-09T00:41:57.807Z,3.27
2018-05-09T00:46:00.444Z,3.70
2018-05-09T00:50:03.912Z,3.97
2018-05-09T00:54:18.560Z,4.20
2018-05-09T00:58:21.196Z,3.43
2018-05-09T01:02:24.605Z,4.03
2018-05-09T01:06:28.009Z,3.53
2018-05-09T01:10:31.475Z,4.10
2018-05-09T01:14:34.077Z,3.90
2018-05-09T01:22:45.731Z,3.67
2018-05-09T01:26:49.146Z,3.80
2018-05-09T01:30:52.612Z,4.10
2018-05-09T01:34:55.269Z,3.67
2018-05-09T01:38:57.860Z,3.60
2018-05-09T01:43:00.643Z,3.70
2018-05-09T01:47:03.335Z,4.27
2018-05-09T01:51:05.971Z,3.40
2018-05-09T01:55:09.371Z,3.87
2018-05-09T01:59:12.800Z,4.37
2018-05-09T02:03:15.444Z,4.13
2018-05-09T02:07:18.135Z,4.40
2018-05-09T02:11:20.781Z,4.10
2018-05-09T02:15:24.181Z,4.07
2018-05-09T02:19:27.586Z,4.30
2018-05-09T02:23:30.986Z,4.03
2018-05-09T02:27:34.396Z,4.47
2018-05-09T02:31:37.803Z,4.07
2018-05-09T02:35:41.217Z,4.70
2018-05-09T02:39:43.867Z,4.63
2018-05-09T02:43:46.603Z,4.63
2018-05-09T02:47:49.236Z,4.27
2018-05-09T02:51:51.923Z,4.13
2018-05-09T02:55:54.520Z,4.20
2018-05-09T02:59:57.165Z,4.50
2018-05-09T03:03:59.893Z,4.10
2018-05-09T03:08:02.537Z,3.87
2018-05-09T03:12:05.180Z,3.73
2018-05-09T03:16:07.792Z,4.13
2018-05-09T03:20:11.213Z,4.07
2018-05-09T03:24:13.852Z,4.40
2018-05-09T03:28:16.497Z,5.00
2018-05-09T03:32:19.211Z,4.37
2018-05-09T03:36:21.816Z,4.70
2018-05-09T03:40:24.464Z,4.23
2018-05-09T03:44:27.101Z,4.23
2018-05-09T03:52:39.534Z,4.57
2018-05-09T03:56:42.168Z,4.33
2018-05-09T04:00:45.639Z,4.03
2018-05-09T04:05:00.220Z,5.27
2018-05-09T04:09:14.557Z,4.70
2018-05-09T04:13:17.204Z,5.00
2018-05-09T04:17:19.824Z,4.90
2018-05-09T04:21:22.512Z,5.30
2018-05-09T04:25:25.148Z,4.80
2018-05-09T04:29:27.789Z,5.03
2018-05-09T04:33:30.388Z,5.00
2018-05-09T04:41:42.181Z,4.93
2018-05-09T04:45:44.833Z,6.27
2018-05-09T04:49:47.502Z,5.13
2018-05-09T04:53:50.161Z,5.03
2018-05-09T04:57:52.864Z,5.03
2018-05-09T05:01:55.500Z,5.60
2018-05-09T05:05:58.141Z,5.33
2018-05-09T05:10:00.753Z,5.83
2018-05-09T05:14:03.392Z,4.83
2018-05-09T05:18:06.035Z,5.73
2018-05-09T05:22:08.675Z,4.83
2018-05-09T05:26:11.323Z,4.83
2018-05-09T05:30:13.972Z,5.57
2018-05-09T05:34:16.614Z,4.40
2018-05-09T05:38:20.029Z,5.93
2018-05-09T05:42:22.704Z,4.87
2018-05-09T05:46:26.077Z,5.50
2018-05-09T05:50:28.716Z,4.97
2018-05-09T05:54:31.355Z,4.50
2018-05-09T05:58:33.999Z,5.33
2018-05-09T06:02:36.636Z,5.70
2018-05-09T06:06:39.248Z,5.23
2018-05-09T06:10:42.714Z,4.40
2018-05-09T06:14:45.353Z,4.80
2018-05-09T06:18:48.762Z,4.33
2018-05-09T06:22:52.168Z,4.43
2018-05-09T06:26:54.828Z,4.67
2018-05-09T06:30:57.480Z,3.93
2018-05-09T06:35:00.119Z,3.77
2018-05-09T06:39:04.257Z,4.10
2018-05-09T06:43:08.326Z,3.83
2018-05-09T06:47:11.597Z,3.30
2018-05-09T06:51:14.276Z,4.07
2018-05-09T06:55:16.921Z,3.63
2018-05-09T06:59:19.558Z,3.60
2018-05-09T07:03:22.246Z,3.30
2018-05-09T07:07:24.901Z,3.70
2018-05-09T07:11:27.543Z,3.10
2018-05-09T07:15:30.184Z,3.23
2018-05-09T07:19:33.639Z,3.07
2018-05-09T07:23:36.246Z,3.40
2018-05-09T07:27:38.895Z,3.43
2018-05-09T07:31:41.529Z,3.40
2018-05-09T07:35:44.169Z,2.83
2018-05-09T07:39:46.827Z,3.17
2018-05-09T07:43:49.424Z,3.07
2018-05-09T07:47:52.924Z,3.13
2018-05-09T07:51:55.488Z,2.73
2018-05-09T07:55:58.126Z,2.77
2018-05-09T08:00:00.830Z,3.40
2018-05-09T08:04:04.200Z,3.03
2018-05-09T08:08:07.627Z,2.93
2018-05-09T08:12:10.266Z,3.00
2018-05-09T08:16:13.734Z,3.37
2018-05-09T08:20:16.380Z,3.40
2018-05-09T08:24:18.997Z,3.10
2018-05-09T08:28:21.640Z,3.03
2018-05-09T08:32:25.091Z,3.50
2018-05-09T08:36:27.768Z,3.17
2018-05-09T08:40:30.423Z,3.20
2018-05-09T08:44:33.104Z,3.50
2018-05-09T08:48:35.790Z,3.07
2018-05-09T08:52:38.439Z,3.07
2018-05-09T08:56:41.081Z,3.37
2018-05-09T09:00:44.490Z,3.63
2018-05-09T09:04:47.127Z,3.37
2018-05-09T09:08:49.766Z,3.20
2018-05-09T09:12:52.419Z,3.33
2018-05-09T09:16:55.827Z,3.10
2018-05-09T09:20:58.528Z,3.27
2018-05-09T09:25:01.877Z,3.00
2018-05-09T09:29:05.368Z,3.23
2018-05-09T09:33:07.945Z,3.10
2018-05-09T09:37:10.622Z,3.93
2018-05-09T09:41:13.255Z,3.90
2018-05-09T09:45:16.712Z,3.27
2018-05-09T09:49:19.361Z,3.70
2018-05-09T09:53:22.004Z,3.10
2018-05-09T09:57:24.615Z,3.20
2018-05-09T10:01:30.053Z,2.80
2018-05-09T10:05:33.111Z,3.17
2018-05-09T10:09:36.821Z,3.40
2018-05-09T10:13:39.679Z,2.63
2018-05-09T10:17:45.586Z,3.10
2018-05-09T10:25:57.506Z,2.90
2018-05-09T10:30:00.209Z,3.60
2018-05-09T10:34:02.846Z,3.03
2018-05-09T10:38:05.464Z,3.10
2018-05-09T10:42:08.112Z,2.70
2018-05-09T10:46:10.818Z,3.40
2018-05-09T10:50:14.239Z,2.73
2018-05-09T10:54:16.889Z,2.73
2018-05-09T10:58:19.492Z,3.20
2018-05-09T11:02:22.155Z,2.43
2018-05-09T11:06:24.802Z,3.00
2018-05-09T11:10:27.461Z,2.90
2018-05-09T11:14:30.888Z,2.73
2018-05-09T11:18:33.566Z,3.00
2018-05-09T11:22:36.971Z,3.30
2018-05-09T11:26:40.432Z,2.90
2018-05-09T11:30:43.080Z,2.83
2018-05-09T11:34:45.748Z,2.87
2018-05-09T11:38:49.151Z,3.20
2018-05-09T11:42:52.621Z,3.23
2018-05-09T11:46:55.261Z,3.33
2018-05-09T11:50:58.686Z,2.60
2018-05-09T11:55:01.348Z,2.90
2018-05-09T11:59:04.753Z,2.70
2018-05-09T12:03:08.166Z,2.80
2018-05-09T12:07:11.623Z,2.77
2018-05-09T12:11:14.232Z,3.40
2018-05-09T12:15:16.969Z,2.83
2018-05-09T12:19:19.670Z,3.37
2018-05-09T12:23:22.349Z,2.73
2018-05-09T12:27:24.989Z,3.57
2018-05-09T12:31:28.383Z,2.97
2018-05-09T12:35:31.043Z,3.53
2018-05-09T12:39:33.676Z,3.47
2018-05-09T12:43:36.360Z,3.40
2018-05-09T12:47:39.803Z,3.07
2018-05-09T12:51:43.166Z,2.80
2018-05-09T12:55:45.801Z,3.57
2018-05-09T12:59:48.449Z,3.57
2018-05-09T13:03:51.093Z,3.00
2018-05-09T13:07:53.793Z,3.20
2018-05-09T13:15:59.195Z,3.30
2018-05-09T13:20:01.846Z,3.67
2018-05-09T13:24:04.553Z,3.13
2018-05-09T13:28:07.159Z,3.27
2018-05-09T13:32:09.801Z,3.67
2018-05-09T13:36:12.521Z,3.40
2018-05-09T13:44:11.827Z,3.00
2018-05-09T13:48:14.436Z,3.10
2018-05-09T13:52:17.842Z,3.40
2018-05-09T13:56:20.485Z,3.17
2018-05-09T14:00:23.897Z,3.30
2018-05-09T14:04:27.296Z,3.00
2018-05-09T14:08:29.904Z,3.40
2018-05-09T14:12:33.307Z,3.70
2018-05-09T14:16:35.984Z,3.10
2018-05-09T14:20:39.383Z,2.63
2018-05-09T14:24:42.020Z,2.83
2018-05-09T14:28:44.638Z,2.70
2018-05-09T14:32:47.288Z,3.07
2018-05-09T14:36:49.921Z,2.83
2018-05-09T14:40:52.555Z,2.90
2018-05-09T14:44:55.188Z,2.97
2018-05-09T14:48:57.795Z,2.70
2018-05-09T14:53:00.428Z,3.00
2018-05-09T14:57:03.067Z,3.00
2018-05-09T15:01:05.699Z,2.77
2018-05-09T15:05:08.328Z,2.67
2018-05-09T15:09:10.925Z,2.83
2018-05-09T15:13:13.569Z,3.03
2018-05-09T15:17:16.209Z,3.30
2018-05-09T15:21:18.858Z,3.20
2018-05-09T15:25:21.571Z,2.83
2018-05-09T15:29:24.131Z,2.70
2018-05-09T15:33:26.775Z,3.13
2018-05-09T15:37:30.242Z,3.27
2018-05-09T15:41:32.880Z,3.03
2018-05-09T15:45:36.289Z,2.50
2018-05-09T15:49:39.682Z,2.50
2018-05-09T15:53:43.083Z,2.67
2018-05-09T15:57:45.721Z,2.83
2018-05-09T16:01:48.361Z,3.00
2018-05-09T16:05:51.763Z,2.70
2018-05-09T16:09:54.368Z,3.10
2018-05-09T16:13:57.771Z,3.70
2018-05-09T16:18:01.177Z,3.30
2018-05-09T16:22:04.600Z,3.63
2018-05-09T16:26:07.260Z,2.90
2018-05-09T16:30:09.911Z,3.13
2018-05-09T16:34:12.594Z,2.73
2018-05-09T16:38:15.335Z,3.13
2018-05-09T16:42:17.934Z,3.13
2018-05-09T16:46:21.360Z,3.43
2018-05-09T16:50:23.981Z,2.97
2018-05-09T16:54:27.421Z,2.93
2018-05-09T16:58:30.090Z,3.50
2018-05-09T17:02:33.542Z,3.00
2018-05-09T17:06:36.179Z,3.07
2018-05-09T17:10:38.780Z,3.13
2018-05-09T17:14:41.423Z,3.23
2018-05-09T17:18:44.064Z,3.10
2018-05-09T17:22:46.707Z,3.53
2018-05-09T17:26:49.399Z,2.90
2018-05-09T17:30:51.995Z,3.13
2018-05-09T17:34:54.628Z,3.60
2018-05-09T17:38:58.040Z,2.83
2018-05-09T17:45:45.875Z,3.20
2018-05-09T17:49:48.517Z,3.40
2018-05-09T17:53:51.156Z,3.33
2018-05-09T17:57:53.887Z,3.43
2018-05-09T18:01:56.589Z,3.07
2018-05-09T18:05:59.193Z,3.67
2018-05-09T18:10:01.843Z,3.30
2018-05-09T18:14:04.540Z,3.77
2018-05-09T18:18:07.176Z,4.37
2018-05-09T18:22:09.811Z,3.90
2018-05-09T18:26:12.468Z,3.83
2018-05-09T18:30:15.161Z,3.83
2018-05-09T18:34:18.573Z,3.90
2018-05-09T18:38:22.149Z,3.73
2018-05-09T18:42:24.789Z,4.37
2018-05-09T18:46:27.558Z,3.40
2018-05-09T18:50:30.138Z,4.87
2018-05-09T18:54:32.772Z,4.53
2018-05-09T18:58:35.403Z,4.53
2018-05-09T19:06:47.667Z,4.30
2018-05-09T19:10:51.065Z,4.10
2018-05-09T19:14:53.700Z,4.20
2018-05-09T19:18:56.336Z,4.33
2018-05-09T19:22:58.986Z,4.27
2018-05-09T19:27:01.601Z,4.47
2018-05-09T19:31:04.293Z,4.80
2018-05-09T19:35:06.933Z,4.40
2018-05-09T19:39:09.580Z,4.37
2018-05-09T19:43:12.220Z,4.80
2018-05-09T19:47:14.828Z,5.37
2018-05-09T19:51:17.471Z,5.73
2018-05-09T19:55:20.112Z,6.27
2018-05-09T19:59:22.757Z,5.10
2018-05-09T20:03:25.455Z,5.80
2018-05-09T20:07:28.055Z,5.50
2018-05-09T20:11:30.758Z,5.47
2018-05-09T20:15:33.456Z,4.63
2018-05-09T20:19:36.088Z,5.20
2018-05-09T20:23:38.789Z,4.47
2018-05-09T20:27:41.388Z,5.30
2018-05-09T20:31:56.987Z,4.63
2018-05-09T20:35:59.693Z,5.20
2018-05-09T20:40:02.334Z,5.07
2018-05-09T20:44:04.975Z,4.47
2018-05-09T20:48:07.604Z,5.07
2018-05-09T20:52:11.015Z,4.97
2018-05-09T20:56:13.657Z,5.90
2018-05-09T21:00:16.293Z,5.17
2018-05-09T21:04:18.933Z,4.87
2018-05-09T21:08:21.535Z,4.80
2018-05-09T21:12:24.231Z,4.90
2018-05-09T21:16:26.867Z,5.43
2018-05-09T21:20:29.512Z,5.77
2018-05-09T21:24:32.917Z,5.50
2018-05-09T21:28:36.290Z,5.93
2018-05-09T21:32:38.980Z,5.53
2018-05-09T21:36:42.475Z,5.33
2018-05-09T21:40:45.182Z,6.10
2018-05-09T21:44:47.783Z,5.50
2018-05-09T21:48:50.386Z,5.63
2018-05-09T21:52:53.791Z,6.03
2018-05-09T21:56:57.201Z,5.20
2018-05-09T22:01:00.671Z,5.10
2018-05-09T22:05:03.312Z,5.20
2018-05-09T22:09:06.676Z,4.97
2018-05-09T22:13:09.316Z,5.83
2018-05-09T22:17:11.997Z,5.20
2018-05-09T22:21:14.640Z,5.93
2018-05-09T22:25:17.273Z,4.97
2018-05-09T22:29:19.939Z,6.10
2018-05-09T22:33:22.600Z,5.23
2018-05-09T22:37:25.244Z,4.90
2018-05-09T22:41:27.885Z,6.07
2018-05-09T22:45:30.580Z,4.90
2018-05-09T22:49:33.184Z,5.47
2018-05-09T22:53:36.605Z,7.10
2018-05-09T22:57:40.009Z,5.80
2018-05-09T23:01:43.412Z,5.33
2018-05-09T23:05:46.819Z,6.40
2018-05-09T23:09:50.183Z,5.83
2018-05-09T23:13:52.876Z,5.60
2018-05-09T23:17:56.317Z,5.83
2018-05-09T23:21:59.724Z,6.07
2018-05-09T23:26:03.130Z,5.47
2018-05-09T23:30:06.492Z,5.77
2018-05-09T23:34:09.937Z,5.70
2018-05-09T23:38:13.336Z,6.47
2018-05-09T23:42:15.982Z,6.10
2018-05-09T23:46:18.620Z,6.23
2018-05-09T23:50:21.996Z,6.10
2018-05-09T23:54:24.638Z,6.87
2018-05-09T23:58:27.276Z,6.30
